Sarah Schulte — 5BPA3 — position and weather

sailwx.info

Track history (hours):
 
Tides and Currents Weather Stations Pressure Air Temp Water Temp Dewpoint Dewpoint Depression Visibility Wind Speed Wind Dir Waves Ship Positions

Sarah Schulte

Last reported at 2014-Oct-25 20:30 UTC. Time now 2014-Oct-25 21:11 UTC.
Position N 24°17' E 118°11'.

Length 222 m; draft 10 m.

Type: Ship. MMSI: 210409000.

Date/timePositionNaut miles runAvg speedWind from/ knotsBaromVisibWave heightAir tempDewpointWater temp
2014-Oct-25 20:30N 24°17' E 118°11'1110.7
2014-Oct-25 19:25N 24°09' E 118°21'0 0.2
2014-Oct-25 18:29N 24°09' E 118°21'2 1.5
2014-Oct-25 17:20N 24°08' E 118°19'1 1.4
2014-Oct-25 16:32N 24°09' E 118°20'6 0.6
2014-Oct-25 05:10N 24°15' E 118°23'0 0.0
2014-Oct-25 02:32N 24°15' E 118°23'0 0.1
2014-Oct-25 01:29N 24°15' E 118°23'0 0.1
2014-Oct-24 23:25N 24°15' E 118°23'0 0.0
2014-Oct-24 16:29N 24°15' E 118°23'0 0.0
2014-Oct-24 09:23N 24°15' E 118°23'18 9.6
2014-Oct-24 07:28N 24°22' E 118°41'  
Track history (hours):
 
Tides and Currents Weather Stations Pressure Air Temp Water Temp Dewpoint Dewpoint Depression Visibility Wind Speed Wind Dir Waves Ship Positions

Sarah Schulte

Last reported at 2014-Oct-25 20:30 UTC. Time now 2014-Oct-25 21:11 UTC.
Position N 24°17' E 118°11'.

Length 222 m; draft 10 m.

Type: Ship. MMSI: 210409000.

Date/timePositionNaut miles runAvg speedWind from/ knotsBaromVisibWave heightAir tempDewpointWater temp
2014-Oct-25 20:30N 24°17' E 118°11'1110.7
2014-Oct-25 19:25N 24°09' E 118°21'0 0.2
2014-Oct-25 18:29N 24°09' E 118°21'2 1.5
2014-Oct-25 17:20N 24°08' E 118°19'1 1.4
2014-Oct-25 16:32N 24°09' E 118°20'6 0.6
2014-Oct-25 05:10N 24°15' E 118°23'0 0.0
2014-Oct-25 02:32N 24°15' E 118°23'0 0.1
2014-Oct-25 01:29N 24°15' E 118°23'0 0.1
2014-Oct-24 23:25N 24°15' E 118°23'0 0.0
2014-Oct-24 16:29N 24°15' E 118°23'0 0.0
2014-Oct-24 09:23N 24°15' E 118°23'18 9.6
2014-Oct-24 07:28N 24°22' E 118°41'  

Dump ship's entire track history